Aviation weather information 2019-04-19 17:16 UTC

TAF(FCEO32)
FCEO32 EETN 191200 AAA
TAF AMD EEKA 191600Z 1913/1919 CNL=
FCEO32 EETN 191400
TAF EEKE 191400Z 1915/1921 35010KT CAVOK=

TAF(FTEO31)
FTEO31 EETN 191700
TAF EETN 191700Z 1918/2018 30007KT CAVOK BECMG 1919/1921 SCT015
     BKN045 BECMG 2000/2002 36010KT PROB40 TEMPO 2009/2016 BKN015=

TAF(FTEO33)
FTEO33 EEEI 191130
TAF EEEI 191130Z 1912/2012 29008KT CAVOK BECMG 1921/1923 36006KT=

Weather observation (METAR/SPECI)
METAR EETN 191650Z 26007KT CAVOK 12/01 Q1031 NOSIG=
METAR EEEI 191650Z 25004KT CAVOK 09/01 Q1031 NOSIG=
METAR EETU 191650Z AUTO 06007KT 9999 BKN160/// 14/M04 Q1030=
METAR EEPU 191650Z NIL=
METAR EEKE 191650Z AUTO 35008KT 300V010 9999NDV NSC 12/00 Q1033=
METAR EEKA 191650Z NIL=